Terminal Aerodrome Forecast
Issued by NWS Wilmington, OH

Current Version | Previous Version | Graphics & Text | Print | Product List | Glossary On
Versions: 1 2 3 4 5 6 7 8 9 10 11 12 13 14 15 16 17 18 19 20 21 22 23 24 25 26 27 28 29 30 31 32
000
FTUS41 KILN 192300
TAFCVG
TAF
KCVG 192334Z 2000/2106 20007KT P6SM VCTS BKN040CB
      TEMPO 2002/2005 3SM -TSRA BR OVC035CB
     FM200500 21004KT 5SM BR SCT040
     FM200800 22003KT 2SM BR FEW015
     FM201400 25006KT P6SM SCT040
     FM201700 27009KT P6SM SCT050
     FM210000 24005KT P6SM SCT250=

USA.gov is the U.S. government's official web portal to all federal, state and local government web resources and services.